sensor_id;sensor_type;location;lat;lon;timestamp;pressure;altitude;pressure_sealevel;temperature;humidity
52249;BME280;38541;48.130;8.378;2023-03-03T00:01:13;92770.16;;;-1.85;75.22
52249;BME280;38541;48.130;8.378;2023-03-03T00:03:40;92766.53;;;-1.91;75.58
52249;BME280;38541;48.130;8.378;2023-03-03T00:06:09;92762.56;;;-1.94;75.79
52249;BME280;38541;48.130;8.378;2023-03-03T00:08:38;92767.16;;;-1.89;76.42
52249;BME280;38541;48.130;8.378;2023-03-03T00:11:05;92766.78;;;-1.86;76.66
52249;BME280;38541;48.130;8.378;2023-03-03T00:13:41;92770.94;;;-1.85;76.71
52249;BME280;38541;48.130;8.378;2023-03-03T00:16:34;92769.97;;;-1.84;76.99
52249;BME280;38541;48.130;8.378;2023-03-03T00:19:02;92767.38;;;-1.84;77.35
52249;BME280;38541;48.130;8.378;2023-03-03T00:21:44;92771.38;;;-1.81;77.00
52249;BME280;38541;48.130;8.378;2023-03-03T00:24:21;92772.38;;;-1.82;76.80
52249;BME280;38541;48.130;8.378;2023-03-03T00:26:53;92774.50;;;-1.86;76.27
52249;BME280;38541;48.130;8.378;2023-03-03T00:31:47;92767.75;;;-1.87;76.53
52249;BME280;38541;48.130;8.378;2023-03-03T00:36:44;92763.84;;;-1.83;76.54
52249;BME280;38541;48.130;8.378;2023-03-03T00:41:55;92769.72;;;-1.89;75.97
52249;BME280;38541;48.130;8.378;2023-03-03T00:44:42;92775.25;;;-1.92;76.35
52249;BME280;38541;48.130;8.378;2023-03-03T00:47:34;92767.69;;;-1.94;76.49
52249;BME280;38541;48.130;8.378;2023-03-03T00:52:40;92765.56;;;-1.90;76.96
52249;BME280;38541;48.130;8.378;2023-03-03T00:55:10;92768.13;;;-1.90;76.99
52249;BME280;38541;48.130;8.378;2023-03-03T00:57:37;92769.50;;;-1.94;77.31
52249;BME280;38541;48.130;8.378;2023-03-03T01:00:07;92776.41;;;-1.95;76.96
52249;BME280;38541;48.130;8.378;2023-03-03T01:02:33;92779.53;;;-1.99;76.65
52249;BME280;38541;48.130;8.378;2023-03-03T01:05:00;92770.34;;;-2.09;76.47
52249;BME280;38541;48.130;8.378;2023-03-03T01:07:26;92776.47;;;-2.10;76.64
52249;BME280;38541;48.130;8.378;2023-03-03T01:09:53;92778.59;;;-2.13;76.75
52249;BME280;38541;48.130;8.378;2023-03-03T01:12:20;92781.00;;;-2.12;76.78
52249;BME280;38541;48.130;8.378;2023-03-03T01:14:46;92772.69;;;-2.14;76.80
52249;BME280;38541;48.130;8.378;2023-03-03T01:17:14;92777.03;;;-2.15;77.10
52249;BME280;38541;48.130;8.378;2023-03-03T01:19:41;92778.00;;;-2.16;77.37
52249;BME280;38541;48.130;8.378;2023-03-03T01:22:07;92777.22;;;-2.16;77.17
52249;BME280;38541;48.130;8.378;2023-03-03T01:24:33;92779.34;;;-2.20;76.75
52249;BME280;38541;48.130;8.378;2023-03-03T01:27:00;92780.50;;;-2.22;76.70
52249;BME280;38541;48.130;8.378;2023-03-03T01:29:26;92777.16;;;-2.23;77.39
52249;BME280;38541;48.130;8.378;2023-03-03T01:31:53;92770.28;;;-2.16;77.90
52249;BME280;38541;48.130;8.378;2023-03-03T01:34:20;92770.88;;;-2.13;77.77
52249;BME280;38541;48.130;8.378;2023-03-03T01:36:47;92768.31;;;-2.13;77.91
52249;BME280;38541;48.130;8.378;2023-03-03T01:39:13;92777.22;;;-2.16;77.71
52249;BME280;38541;48.130;8.378;2023-03-03T01:41:40;92773.41;;;-2.20;77.08
52249;BME280;38541;48.130;8.378;2023-03-03T01:44:12;92769.84;;;-2.19;77.19
52249;BME280;38541;48.130;8.378;2023-03-03T01:46:45;92776.72;;;-2.26;76.99
52249;BME280;38541;48.130;8.378;2023-03-03T01:49:28;92773.34;;;-2.27;77.52
52249;BME280;38541;48.130;8.378;2023-03-03T01:51:59;92773.34;;;-2.27;77.83
52249;BME280;38541;48.130;8.378;2023-03-03T01:54:29;92776.72;;;-2.26;77.53
52249;BME280;38541;48.130;8.378;2023-03-03T01:57:02;92771.69;;;-2.35;77.27
52249;BME280;38541;48.130;8.378;2023-03-03T01:59:35;92765.50;;;-2.40;76.75
52249;BME280;38541;48.130;8.378;2023-03-03T02:02:03;92771.06;;;-2.37;77.50
52249;BME280;38541;48.130;8.378;2023-03-03T02:04:30;92768.84;;;-2.40;77.52
52249;BME280;38541;48.130;8.378;2023-03-03T02:07:00;92762.09;;;-2.41;77.43
52249;BME280;38541;48.130;8.378;2023-03-03T02:09:50;92762.66;;;-2.46;77.25
52249;BME280;38541;48.130;8.378;2023-03-03T02:12:22;92762.47;;;-2.44;77.33
52249;BME280;38541;48.130;8.378;2023-03-03T02:14:51;92751.56;;;-2.46;77.84
52249;BME280;38541;48.130;8.378;2023-03-03T02:17:18;92758.06;;;-2.50;78.31
52249;BME280;38541;48.130;8.378;2023-03-03T02:23:21;92758.06;;;-2.50;78.41
52249;BME280;38541;48.130;8.378;2023-03-03T02:28:29;92750.50;;;-2.52;78.50
52249;BME280;38541;48.130;8.378;2023-03-03T02:31:01;92756.19;;;-2.56;78.12
52249;BME280;38541;48.130;8.378;2023-03-03T02:33:27;92761.69;;;-2.60;78.21
52249;BME280;38541;48.130;8.378;2023-03-03T02:35:55;92747.09;;;-2.59;77.93
52249;BME280;38541;48.130;8.378;2023-03-03T02:38:28;92746.88;;;-2.58;77.43
52249;BME280;38541;48.130;8.378;2023-03-03T02:41:02;92745.91;;;-2.56;78.31
52249;BME280;38541;48.130;8.378;2023-03-03T02:43:40;92735.28;;;-2.53;78.93
52249;BME280;38541;48.130;8.378;2023-03-03T02:46:10;92733.13;;;-2.50;78.77
52249;BME280;38541;48.130;8.378;2023-03-03T02:48:37;92730.38;;;-2.48;78.95
52249;BME280;38541;48.130;8.378;2023-03-03T02:51:03;92738.72;;;-2.46;79.19
52249;BME280;38541;48.130;8.378;2023-03-03T02:53:30;92730.00;;;-2.45;79.43
52249;BME280;38541;48.130;8.378;2023-03-03T02:55:56;92731.22;;;-2.41;79.65
52249;BME280;38541;48.130;8.378;2023-03-03T02:58:23;92730.63;;;-2.43;79.08
52249;BME280;38541;48.130;8.378;2023-03-03T03:00:50;92731.97;;;-2.47;78.10
52249;BME280;38541;48.130;8.378;2023-03-03T03:03:20;92726.94;;;-2.55;77.06
52249;BME280;38541;48.130;8.378;2023-03-03T03:05:47;92731.81;;;-2.61;76.87
52249;BME280;38541;48.130;8.378;2023-03-03T03:08:17;92733.16;;;-2.65;76.79
52249;BME280;38541;48.130;8.378;2023-03-03T03:10:44;92737.69;;;-2.67;76.84
52249;BME280;38541;48.130;8.378;2023-03-03T03:13:11;92732.94;;;-2.70;77.04
52249;BME280;38541;48.130;8.378;2023-03-03T03:15:38;92731.50;;;-2.73;76.99
52249;BME280;38541;48.130;8.378;2023-03-03T03:18:04;92734.28;;;-2.74;77.05
52249;BME280;38541;48.130;8.378;2023-03-03T03:20:39;92733.72;;;-2.69;77.91
52249;BME280;38541;48.130;8.378;2023-03-03T03:23:09;92730.72;;;-2.73;78.69
52249;BME280;38541;48.130;8.378;2023-03-03T03:25:35;92734.50;;;-2.69;79.16
52249;BME280;38541;48.130;8.378;2023-03-03T03:28:15;92738.69;;;-2.68;79.64
52249;BME280;38541;48.130;8.378;2023-03-03T03:30:42;92747.13;;;-2.74;79.46
52249;BME280;38541;48.130;8.378;2023-03-03T03:33:11;92749.13;;;-2.69;79.65
52249;BME280;38541;48.130;8.378;2023-03-03T03:35:38;92747.91;;;-2.74;79.24
52249;BME280;38541;48.130;8.378;2023-03-03T03:38:12;92745.88;;;-2.78;78.06
52249;BME280;38541;48.130;8.378;2023-03-03T03:40:40;92742.25;;;-2.84;77.66
52249;BME280;38541;48.130;8.378;2023-03-03T03:43:07;92746.44;;;-2.83;78.10
52249;BME280;38541;48.130;8.378;2023-03-03T03:45:33;92747.81;;;-2.80;77.79
52249;BME280;38541;48.130;8.378;2023-03-03T03:48:02;92743.22;;;-2.85;78.26
52249;BME280;38541;48.130;8.378;2023-03-03T03:50:30;92746.22;;;-2.81;78.96
52249;BME280;38541;48.130;8.378;2023-03-03T03:52:56;92744.88;;;-2.77;79.04
52249;BME280;38541;48.130;8.378;2023-03-03T03:55:23;92765.28;;;-2.76;79.38
52249;BME280;38541;48.130;8.378;2023-03-03T03:57:49;92753.41;;;-2.77;79.20
52249;BME280;38541;48.130;8.378;2023-03-03T04:00:16;92752.59;;;-2.77;78.98
52249;BME280;38541;48.130;8.378;2023-03-03T04:02:49;92769.38;;;-2.81;78.62
52249;BME280;38541;48.130;8.378;2023-03-03T04:05:17;92759.44;;;-2.84;78.14
52249;BME280;38541;48.130;8.378;2023-03-03T04:07:44;92759.09;;;-2.81;78.25
52249;BME280;38541;48.130;8.378;2023-03-03T04:10:11;92762.63;;;-2.82;78.07
52249;BME280;38541;48.130;8.378;2023-03-03T04:12:38;92765.56;;;-2.85;78.08
52249;BME280;38541;48.130;8.378;2023-03-03T04:15:11;92760.69;;;-2.80;78.20
52249;BME280;38541;48.130;8.378;2023-03-03T04:17:38;92765.13;;;-2.74;78.88
52249;BME280;38541;48.130;8.378;2023-03-03T04:20:06;92756.69;;;-2.68;79.64
52249;BME280;38541;48.130;8.378;2023-03-03T04:22:33;92759.06;;;-2.66;79.62
52249;BME280;38541;48.130;8.378;2023-03-03T04:25:05;92761.09;;;-2.62;79.92
52249;BME280;38541;48.130;8.378;2023-03-03T04:27:37;92761.97;;;-2.54;80.27
52249;BME280;38541;48.130;8.378;2023-03-03T04:30:05;92757.44;;;-2.52;79.21
52249;BME280;38541;48.130;8.378;2023-03-03T04:32:31;92761.78;;;-2.53;78.49
52249;BME280;38541;48.130;8.378;2023-03-03T04:35:01;92763.38;;;-2.52;78.91
52249;BME280;38541;48.130;8.378;2023-03-03T04:37:36;92769.34;;;-2.51;78.16
52249;BME280;38541;48.130;8.378;2023-03-03T04:40:05;92769.94;;;-2.49;78.12
52249;BME280;38541;48.130;8.378;2023-03-03T04:42:33;92765.16;;;-2.52;77.47
52249;BME280;38541;48.130;8.378;2023-03-03T04:45:01;92772.50;;;-2.49;77.83
52249;BME280;38541;48.130;8.378;2023-03-03T04:47:28;92762.47;;;-2.44;77.69
52249;BME280;38541;48.130;8.378;2023-03-03T04:49:54;92772.84;;;-2.37;77.97
52249;BME280;38541;48.130;8.378;2023-03-03T04:52:20;92771.31;;;-2.32;78.16
52249;BME280;38541;48.130;8.378;2023-03-03T04:54:47;92775.13;;;-2.27;78.02
52249;BME280;38541;48.130;8.378;2023-03-03T04:57:13;92774.22;;;-2.20;78.12
52249;BME280;38541;48.130;8.378;2023-03-03T04:59:40;92770.47;;;-2.17;78.13
52249;BME280;38541;48.130;8.378;2023-03-03T05:02:06;92765.75;;;-2.13;77.83
52249;BME280;38541;48.130;8.378;2023-03-03T05:04:33;92762.63;;;-2.09;78.21
52249;BME280;38541;48.130;8.378;2023-03-03T05:07:00;92761.63;;;-2.08;78.35
52249;BME280;38541;48.130;8.378;2023-03-03T05:09:26;92756.88;;;-2.11;78.24
52249;BME280;38541;48.130;8.378;2023-03-03T05:11:53;92766.25;;;-2.03;79.24
52249;BME280;38541;48.130;8.378;2023-03-03T05:14:19;92760.19;;;-1.95;79.72
52249;BME280;38541;48.130;8.378;2023-03-03T05:16:46;92756.03;;;-1.90;79.35
52249;BME280;38541;48.130;8.378;2023-03-03T05:19:12;92759.81;;;-1.92;79.16
52249;BME280;38541;48.130;8.378;2023-03-03T05:21:39;92758.63;;;-1.90;79.44
52249;BME280;38541;48.130;8.378;2023-03-03T05:24:12;92764.81;;;-1.84;80.02
52249;BME280;38541;48.130;8.378;2023-03-03T05:26:39;92764.09;;;-1.78;79.67
52249;BME280;38541;48.130;8.378;2023-03-03T05:29:07;92769.66;;;-1.74;79.60
52249;BME280;38541;48.130;8.378;2023-03-03T05:31:33;92767.13;;;-1.67;79.27
52249;BME280;38541;48.130;8.378;2023-03-03T05:34:00;92771.91;;;-1.64;79.03
52249;BME280;38541;48.130;8.378;2023-03-03T05:36:27;92767.78;;;-1.59;79.23
52249;BME280;38541;48.130;8.378;2023-03-03T05:38:53;92768.84;;;-1.53;78.57
52249;BME280;38541;48.130;8.378;2023-03-03T05:41:20;92771.63;;;-1.48;78.44
52249;BME280;38541;48.130;8.378;2023-03-03T05:43:47;92769.13;;;-1.41;78.52
52249;BME280;38541;48.130;8.378;2023-03-03T05:46:13;92776.41;;;-1.45;78.17
52249;BME280;38541;48.130;8.378;2023-03-03T05:48:40;92777.41;;;-1.46;78.47
52249;BME280;38541;48.130;8.378;2023-03-03T05:51:07;92779.59;;;-1.42;78.63
52249;BME280;38541;48.130;8.378;2023-03-03T05:53:33;92787.97;;;-1.40;78.73
52249;BME280;38541;48.130;8.378;2023-03-03T05:56:00;92787.19;;;-1.34;79.04
52249;BME280;38541;48.130;8.378;2023-03-03T05:58:26;92784.84;;;-1.29;78.78
52249;BME280;38541;48.130;8.378;2023-03-03T06:00:53;92782.50;;;-1.24;78.73
52249;BME280;38541;48.130;8.378;2023-03-03T06:03:20;92783.75;;;-1.20;78.31
52249;BME280;38541;48.130;8.378;2023-03-03T06:05:46;92788.06;;;-1.20;78.70
52249;BME280;38541;48.130;8.378;2023-03-03T06:08:13;92787.91;;;-1.19;78.87
52249;BME280;38541;48.130;8.378;2023-03-03T06:10:39;92791.69;;;-1.15;78.97
52249;BME280;38541;48.130;8.378;2023-03-03T06:13:08;92791.31;;;-1.11;78.87
52249;BME280;38541;48.130;8.378;2023-03-03T06:15:35;92793.13;;;-1.05;79.10
52249;BME280;38541;48.130;8.378;2023-03-03T06:18:01;92795.34;;;-1.02;79.11
52249;BME280;38541;48.130;8.378;2023-03-03T06:20:28;92796.94;;;-1.01;79.00
52249;BME280;38541;48.130;8.378;2023-03-03T06:22:54;92802.31;;;-0.96;78.96
52249;BME280;38541;48.130;8.378;2023-03-03T06:25:21;92804.13;;;-0.90;78.99
52249;BME280;38541;48.130;8.378;2023-03-03T06:27:47;92811.47;;;-0.87;79.19
52249;BME280;38541;48.130;8.378;2023-03-03T06:30:14;92812.72;;;-0.82;78.81
52249;BME280;38541;48.130;8.378;2023-03-03T06:32:41;92815.91;;;-0.80;78.82
52249;BME280;38541;48.130;8.378;2023-03-03T06:35:07;92813.91;;;-0.78;78.83
52249;BME280;38541;48.130;8.378;2023-03-03T06:37:34;92810.53;;;-0.79;78.64
52249;BME280;38541;48.130;8.378;2023-03-03T06:40:00;92803.41;;;-0.77;78.80
52249;BME280;38541;48.130;8.378;2023-03-03T06:42:27;92819.13;;;-0.72;78.53
52249;BME280;38541;48.130;8.378;2023-03-03T06:44:53;92812.75;;;-0.69;78.84
52249;BME280;38541;48.130;8.378;2023-03-03T06:47:20;92812.81;;;-0.62;78.95
52249;BME280;38541;48.130;8.378;2023-03-03T06:49:46;92820.97;;;-0.59;78.64
52249;BME280;38541;48.130;8.378;2023-03-03T06:52:24;92823.56;;;-0.52;78.37
52249;BME280;38541;48.130;8.378;2023-03-03T06:54:53;92817.44;;;-0.51;78.73
52249;BME280;38541;48.130;8.378;2023-03-03T06:57:28;92827.19;;;-0.46;78.47
52249;BME280;38541;48.130;8.378;2023-03-03T07:00:17;92834.16;;;-0.40;78.63
52249;BME280;38541;48.130;8.378;2023-03-03T07:02:55;92836.94;;;-0.35;78.21
52249;BME280;38541;48.130;8.378;2023-03-03T07:05:23;92841.72;;;-0.32;78.26
52249;BME280;38541;48.130;8.378;2023-03-03T07:07:50;92842.75;;;-0.26;78.34
52249;BME280;38541;48.130;8.378;2023-03-03T07:10:23;92839.59;;;-0.21;78.08
52249;BME280;38541;48.130;8.378;2023-03-03T07:12:50;92847.31;;;-0.21;77.81
52249;BME280;38541;48.130;8.378;2023-03-03T07:15:21;92853.69;;;-0.17;77.86
52249;BME280;38541;48.130;8.378;2023-03-03T07:17:52;92840.59;;;-0.16;77.87
52249;BME280;38541;48.130;8.378;2023-03-03T07:20:23;92847.75;;;-0.11;77.92
52249;BME280;38541;48.130;8.378;2023-03-03T07:22:50;92846.56;;;-0.08;78.28
52249;BME280;38541;48.130;8.378;2023-03-03T07:25:20;92845.00;;;-0.03;77.94
52249;BME280;38541;48.130;8.378;2023-03-03T07:27:49;92847.41;;;0.06;77.75
52249;BME280;38541;48.130;8.378;2023-03-03T07:30:23;92842.84;;;0.08;78.24
52249;BME280;38541;48.130;8.378;2023-03-03T07:32:52;92847.03;;;0.16;78.42
52249;BME280;38541;48.130;8.378;2023-03-03T07:35:28;92850.22;;;0.24;77.89
52249;BME280;38541;48.130;8.378;2023-03-03T07:37:56;92856.22;;;0.32;77.53
52249;BME280;38541;48.130;8.378;2023-03-03T07:42:59;92859.41;;;0.47;78.37
52249;BME280;38541;48.130;8.378;2023-03-03T07:45:36;92852.28;;;0.49;77.56
52249;BME280;38541;48.130;8.378;2023-03-03T07:48:16;92852.66;;;0.53;77.48
52249;BME280;38541;48.130;8.378;2023-03-03T07:50:45;92851.69;;;0.61;78.24
52249;BME280;38541;48.130;8.378;2023-03-03T07:53:27;92859.63;;;0.66;77.41
52249;BME280;38541;48.130;8.378;2023-03-03T07:55:54;92861.84;;;0.69;77.50
52249;BME280;38541;48.130;8.378;2023-03-03T07:58:25;92873.19;;;0.68;77.22
52249;BME280;38541;48.130;8.378;2023-03-03T08:03:57;92862.81;;;0.81;77.62
52249;BME280;38541;48.130;8.378;2023-03-03T08:11:43;92870.19;;;1.05;77.23
52249;BME280;38541;48.130;8.378;2023-03-03T08:14:14;92873.38;;;1.13;76.95
52249;BME280;38541;48.130;8.378;2023-03-03T08:16:41;92882.72;;;1.14;76.78
52249;BME280;38541;48.130;8.378;2023-03-03T08:19:10;92886.91;;;1.16;77.21
52249;BME280;38541;48.130;8.378;2023-03-03T08:21:38;92882.13;;;1.26;76.73
52249;BME280;38541;48.130;8.378;2023-03-03T08:24:05;92883.91;;;1.32;76.77
52249;BME280;38541;48.130;8.378;2023-03-03T08:26:31;92885.28;;;1.41;76.89
52249;BME280;38541;48.130;8.378;2023-03-03T08:28:58;92886.25;;;1.47;76.46
52249;BME280;38541;48.130;8.378;2023-03-03T08:31:24;92883.47;;;1.55;76.69
52249;BME280;38541;48.130;8.378;2023-03-03T08:34:06;92888.03;;;1.60;75.92
52249;BME280;38541;48.130;8.378;2023-03-03T08:36:33;92883.47;;;1.62;76.28
52249;BME280;38541;48.130;8.378;2023-03-03T08:39:00;92888.00;;;1.74;75.77
52249;BME280;38541;48.130;8.378;2023-03-03T08:41:27;92885.78;;;1.84;75.35
52249;BME280;38541;48.130;8.378;2023-03-03T08:43:53;92894.50;;;1.96;75.05
52249;BME280;38541;48.130;8.378;2023-03-03T08:46:20;92884.72;;;1.98;75.40
52249;BME280;38541;48.130;8.378;2023-03-03T08:48:46;92887.09;;;2.07;75.63
52249;BME280;38541;48.130;8.378;2023-03-03T08:51:13;92897.63;;;2.19;75.24
52249;BME280;38541;48.130;8.378;2023-03-03T08:53:39;92903.19;;;2.22;74.65
52249;BME280;38541;48.130;8.378;2023-03-03T08:56:07;92897.78;;;2.24;74.22
52249;BME280;38541;48.130;8.378;2023-03-03T08:58:33;92897.38;;;2.27;74.09
52249;BME280;38541;48.130;8.378;2023-03-03T09:01:02;92891.72;;;2.37;74.19
52249;BME280;38541;48.130;8.378;2023-03-03T09:03:28;92889.91;;;2.44;74.32
52249;BME280;38541;48.130;8.378;2023-03-03T09:05:55;92886.72;;;2.49;73.35
52249;BME280;38541;48.130;8.378;2023-03-03T09:08:21;92892.38;;;2.64;73.34
52249;BME280;38541;48.130;8.378;2023-03-03T09:10:48;92893.94;;;2.72;72.80
52249;BME280;38541;48.130;8.378;2023-03-03T09:13:18;92896.72;;;2.77;72.21
52249;BME280;38541;48.130;8.378;2023-03-03T09:15:46;92906.97;;;2.91;72.20
52249;BME280;38541;48.130;8.378;2023-03-03T09:20:50;92895.94;;;3.02;69.03
52249;BME280;38541;48.130;8.378;2023-03-03T09:23:38;92902.03;;;3.14;68.55
52249;BME280;38541;48.130;8.378;2023-03-03T09:28:49;92902.41;;;3.18;67.39
52249;BME280;38541;48.130;8.378;2023-03-03T09:31:24;92901.19;;;3.21;68.10
52249;BME280;38541;48.130;8.378;2023-03-03T09:33:51;92902.16;;;3.26;67.84
52249;BME280;38541;48.130;8.378;2023-03-03T09:36:35;92903.25;;;3.37;67.61
52249;BME280;38541;48.130;8.378;2023-03-03T09:39:17;92907.59;;;3.43;67.62
52249;BME280;38541;48.130;8.378;2023-03-03T09:42:02;92903.22;;;3.63;67.87
52249;BME280;38541;48.130;8.378;2023-03-03T09:53:18;92901.28;;;4.14;66.42
52249;BME280;38541;48.130;8.378;2023-03-03T09:55:58;92899.25;;;4.16;65.12
52249;BME280;38541;48.130;8.378;2023-03-03T10:04:41;92908.31;;;4.44;64.80
52249;BME280;38541;48.130;8.378;2023-03-03T10:10:20;92907.09;;;4.77;63.69
52249;BME280;38541;48.130;8.378;2023-03-03T10:19:23;92913.84;;;5.21;62.93
52249;BME280;38541;48.130;8.378;2023-03-03T10:22:04;92911.50;;;5.31;62.13
52249;BME280;38541;48.130;8.378;2023-03-03T10:24:31;92912.06;;;5.33;62.54
52249;BME280;38541;48.130;8.378;2023-03-03T10:32:16;92906.75;;;5.52;62.12
52249;BME280;38541;48.130;8.378;2023-03-03T10:38:04;92917.97;;;5.88;60.82
52249;BME280;38541;48.130;8.378;2023-03-03T10:46:18;92916.81;;;6.20;60.44
52249;BME280;38541;48.130;8.378;2023-03-03T11:00:02;92925.09;;;6.69;58.47
52249;BME280;38541;48.130;8.378;2023-03-03T11:02:42;92919.81;;;6.81;58.98
52249;BME280;38541;48.130;8.378;2023-03-03T11:05:21;92917.97;;;6.94;58.51
52249;BME280;38541;48.130;8.378;2023-03-03T11:08:01;92910.28;;;7.04;57.71
52249;BME280;38541;48.130;8.378;2023-03-03T11:18:34;92911.22;;;6.69;56.61
52249;BME280;38541;48.130;8.378;2023-03-03T11:21:22;92910.69;;;6.67;57.89
52249;BME280;38541;48.130;8.378;2023-03-03T11:23:57;92903.59;;;6.79;56.77
52249;BME280;38541;48.130;8.378;2023-03-03T11:32:20;92910.22;;;6.70;57.50
52249;BME280;38541;48.130;8.378;2023-03-03T11:38:09;92909.22;;;7.34;57.14
52249;BME280;38541;48.130;8.378;2023-03-03T11:40:47;92900.97;;;7.42;56.41
52249;BME280;38541;48.130;8.378;2023-03-03T11:46:10;92901.66;;;7.04;56.46
52249;BME280;38541;48.130;8.378;2023-03-03T11:51:36;92902.41;;;7.33;56.23
52249;BME280;38541;48.130;8.378;2023-03-03T11:54:16;92897.03;;;7.40;55.72
52249;BME280;38541;48.130;8.378;2023-03-03T11:56:46;92897.97;;;7.51;54.72
52249;BME280;38541;48.130;8.378;2023-03-03T11:59:43;92892.81;;;7.56;56.55
52249;BME280;38541;48.130;8.378;2023-03-03T12:04:49;92894.88;;;7.93;54.35
52249;BME280;38541;48.130;8.378;2023-03-03T12:07:35;92894.88;;;7.93;54.30
52249;BME280;38541;48.130;8.378;2023-03-03T12:15:05;92904.44;;;6.97;55.36
52249;BME280;38541;48.130;8.378;2023-03-03T12:18:03;92901.56;;;6.98;54.88
52249;BME280;38541;48.130;8.378;2023-03-03T12:23:28;92892.88;;;7.61;54.55
52249;BME280;38541;48.130;8.378;2023-03-03T12:26:14;92893.09;;;7.77;55.22
52249;BME280;38541;48.130;8.378;2023-03-03T12:28:52;92889.50;;;7.83;54.90
52249;BME280;38541;48.130;8.378;2023-03-03T12:31:49;92889.47;;;8.00;55.02
52249;BME280;38541;48.130;8.378;2023-03-03T12:34:40;92876.75;;;8.31;54.15
52249;BME280;38541;48.130;8.378;2023-03-03T12:37:39;92883.09;;;8.57;54.27
52249;BME280;38541;48.130;8.378;2023-03-03T12:40:18;92882.50;;;8.50;52.74
52249;BME280;38541;48.130;8.378;2023-03-03T12:48:05;92876.91;;;8.91;53.74
52249;BME280;38541;48.130;8.378;2023-03-03T12:53:44;92879.66;;;8.79;51.02
52249;BME280;38541;48.130;8.378;2023-03-03T12:56:34;92883.13;;;8.85;51.78
52249;BME280;38541;48.130;8.378;2023-03-03T12:59:36;92876.47;;;8.27;51.45
52249;BME280;38541;48.130;8.378;2023-03-03T13:07:32;92880.00;;;8.61;52.88
52249;BME280;38541;48.130;8.378;2023-03-03T13:15:38;92877.31;;;8.55;52.79
52249;BME280;38541;48.130;8.378;2023-03-03T13:18:33;92885.97;;;8.34;53.34
52249;BME280;38541;48.130;8.378;2023-03-03T13:21:11;92891.16;;;8.28;52.43
52249;BME280;38541;48.130;8.378;2023-03-03T13:23:56;92890.09;;;8.30;52.98
52249;BME280;38541;48.130;8.378;2023-03-03T13:27:12;92889.03;;;8.25;53.58
52249;BME280;38541;48.130;8.378;2023-03-03T13:32:31;92884.94;;;8.57;53.28
52249;BME280;38541;48.130;8.378;2023-03-03T13:35:16;92878.56;;;8.75;51.65
52249;BME280;38541;48.130;8.378;2023-03-03T13:37:48;92874.59;;;9.00;51.49
52249;BME280;38541;48.130;8.378;2023-03-03T13:40:22;92877.19;;;9.27;51.91
52249;BME280;38541;48.130;8.378;2023-03-03T13:45:47;92875.53;;;9.49;49.58
52249;BME280;38541;48.130;8.378;2023-03-03T13:51:18;92865.44;;;10.21;48.84
52249;BME280;38541;48.130;8.378;2023-03-03T13:56:45;92867.75;;;10.07;47.97
52249;BME280;38541;48.130;8.378;2023-03-03T13:59:30;92863.38;;;10.28;48.36
52249;BME280;38541;48.130;8.378;2023-03-03T14:02:31;92864.44;;;9.79;48.93
52249;BME280;38541;48.130;8.378;2023-03-03T14:08:13;92863.53;;;10.70;50.06
52249;BME280;38541;48.130;8.378;2023-03-03T14:13:24;92856.16;;;12.12;44.94
52249;BME280;38541;48.130;8.378;2023-03-03T14:15:57;92855.94;;;12.64;44.65
52249;BME280;38541;48.130;8.378;2023-03-03T14:18:35;92850.59;;;12.74;43.82
52249;BME280;38541;48.130;8.378;2023-03-03T14:21:11;92856.19;;;14.31;41.10
52249;BME280;38541;48.130;8.378;2023-03-03T14:24:02;92857.03;;;13.08;42.62
52249;BME280;38541;48.130;8.378;2023-03-03T14:26:45;92860.09;;;12.75;43.81
52249;BME280;38541;48.130;8.378;2023-03-03T14:29:19;92859.34;;;12.64;42.88
52249;BME280;38541;48.130;8.378;2023-03-03T14:31:47;92860.72;;;12.62;43.11
52249;BME280;38541;48.130;8.378;2023-03-03T14:36:44;92867.22;;;12.75;42.52
52249;BME280;38541;48.130;8.378;2023-03-03T14:41:59;92863.06;;;11.72;44.82
52249;BME280;38541;48.130;8.378;2023-03-03T14:47:20;92857.75;;;11.92;46.00
52249;BME280;38541;48.130;8.378;2023-03-03T14:49:48;92854.06;;;11.93;45.37
52249;BME280;38541;48.130;8.378;2023-03-03T14:54:44;92859.94;;;11.49;46.35
52249;BME280;38541;48.130;8.378;2023-03-03T15:02:43;92851.50;;;10.95;47.01
52249;BME280;38541;48.130;8.378;2023-03-03T15:05:18;92849.94;;;11.15;46.33
52249;BME280;38541;48.130;8.378;2023-03-03T15:07:54;92856.47;;;10.96;46.91
52249;BME280;38541;48.130;8.378;2023-03-03T15:10:26;92844.59;;;10.52;46.55
52249;BME280;38541;48.130;8.378;2023-03-03T15:12:53;92845.28;;;10.37;47.70
52249;BME280;38541;48.130;8.378;2023-03-03T15:15:23;92845.59;;;10.46;46.48
52249;BME280;38541;48.130;8.378;2023-03-03T15:18:00;92845.16;;;10.85;47.76
52249;BME280;38541;48.130;8.378;2023-03-03T15:20:36;92842.81;;;10.89;47.32
52249;BME280;38541;48.130;8.378;2023-03-03T15:29:10;92849.38;;;10.71;47.57
52249;BME280;38541;48.130;8.378;2023-03-03T15:31:57;92838.53;;;10.52;48.22
52249;BME280;38541;48.130;8.378;2023-03-03T15:35:24;92851.91;;;10.50;47.74
52249;BME280;38541;48.130;8.378;2023-03-03T15:37:33;92849.84;;;10.52;48.29
52249;BME280;38541;48.130;8.378;2023-03-03T15:40:25;92848.22;;;10.41;48.16
52249;BME280;38541;48.130;8.378;2023-03-03T15:56:43;92846.88;;;9.37;49.33
52249;BME280;38541;48.130;8.378;2023-03-03T16:05:00;92853.66;;;9.00;51.44
52249;BME280;38541;48.130;8.378;2023-03-03T16:07:45;92849.31;;;8.83;51.03
52249;BME280;38541;48.130;8.378;2023-03-03T16:10:46;92852.38;;;8.75;51.91
52249;BME280;38541;48.130;8.378;2023-03-03T16:13:45;92858.00;;;8.62;52.05
52249;BME280;38541;48.130;8.378;2023-03-03T16:25:29;92868.31;;;8.24;52.94
52249;BME280;38541;48.130;8.378;2023-03-03T16:28:07;92877.97;;;8.23;53.33
52249;BME280;38541;48.130;8.378;2023-03-03T16:30:48;92876.28;;;8.12;53.65
52249;BME280;38541;48.130;8.378;2023-03-03T16:34:00;92882.34;;;7.95;53.60
52249;BME280;38541;48.130;8.378;2023-03-03T16:36:56;92882.16;;;7.80;54.15
52249;BME280;38541;48.130;8.378;2023-03-03T16:42:16;92887.81;;;7.71;54.57
52249;BME280;38541;48.130;8.378;2023-03-03T16:45:04;92890.25;;;7.61;54.66
52249;BME280;38541;48.130;8.378;2023-03-03T16:52:42;92903.19;;;7.51;55.30
52249;BME280;38541;48.130;8.378;2023-03-03T16:55:20;92905.41;;;7.42;55.47
52249;BME280;38541;48.130;8.378;2023-03-03T17:00:51;92912.19;;;7.26;55.67
52249;BME280;38541;48.130;8.378;2023-03-03T17:06:25;92913.91;;;7.03;56.39
52249;BME280;38541;48.130;8.378;2023-03-03T17:09:48;92908.75;;;6.91;56.56